Time;durP1;ratioP1;P1;durP2;ratioP2;P2;SDS_P1;SDS_P2;PMS_P1;PMS_P2;Temp;Humidity;BMP_temperature;BMP_pressure;BME280_temperature;BME280_humidity;BME280_pressure;Samples;Min_cycle;Max_cycle;Signal;HPM_P1;HPM_P2
2023/05/05 00:01:48;;;;;;;2.88;1.10;;;8.80;99.90;;;;;;5035213;28;20041;-77
2023/05/05 00:04:16;;;;;;;2.08;1.30;;;8.70;99.90;;;;;;5052500;28;20040;-79
2023/05/05 00:06:42;;;;;;;2.65;1.08;;;8.70;99.90;;;;;;5053305;28;20035;-77
2023/05/05 00:09:08;;;;;;;4.47;1.55;;;8.70;99.90;;;;;;5049193;28;20470;-78
2023/05/05 00:11:33;;;;;;;4.38;1.52;;;8.60;99.90;;;;;;5051704;28;20040;-81
2023/05/05 00:13:59;;;;;;;1.05;0.93;;;8.60;99.90;;;;;;5047316;28;20188;-78
2023/05/05 00:16:24;;;;;;;1.52;1.20;;;8.60;99.90;;;;;;5051642;28;20017;-78
2023/05/05 00:18:50;;;;;;;2.85;1.60;;;8.60;99.90;;;;;;5047861;28;20021;-80
2023/05/05 00:21:15;;;;;;;1.77;1.33;;;8.50;99.90;;;;;;5050862;28;20017;-79
2023/05/05 00:23:41;;;;;;;6.00;1.48;;;8.50;99.90;;;;;;5052811;28;20025;-79
2023/05/05 00:26:07;;;;;;;3.80;1.63;;;8.50;99.90;;;;;;5031162;28;20064;-78
2023/05/05 00:28:32;;;;;;;1.92;1.15;;;8.50;99.90;;;;;;5057258;28;20025;-78
2023/05/05 00:30:58;;;;;;;2.05;0.88;;;8.50;99.90;;;;;;5040463;28;20040;-77
2023/05/05 00:33:24;;;;;;;1.08;0.98;;;8.50;99.90;;;;;;5036781;28;20524;-78
2023/05/05 00:35:50;;;;;;;4.57;1.73;;;8.50;99.90;;;;;;5057464;28;20017;-79
2023/05/05 00:38:16;;;;;;;1.95;1.17;;;8.50;99.90;;;;;;5038574;28;20041;-78
2023/05/05 00:40:41;;;;;;;1.80;1.45;;;8.50;99.90;;;;;;5038035;28;20524;-79
2023/05/05 00:43:07;;;;;;;3.45;1.70;;;8.50;99.90;;;;;;5039027;28;20017;-78
2023/05/05 00:45:35;;;;;;;3.35;1.63;;;8.50;99.90;;;;;;5058260;28;20468;-78
2023/05/05 00:48:01;;;;;;;3.88;1.50;;;8.50;99.90;;;;;;5038194;28;20542;-76
2023/05/05 00:50:29;;;;;;;5.22;1.65;;;8.50;99.90;;;;;;5037181;28;20066;-78
2023/05/05 00:53:05;;;;;;;2.38;1.13;;;8.40;99.90;;;;;;5055051;28;20104;-78
2023/05/05 00:55:31;;;;;;;;;;;8.40;99.90;;;;;;5052924;28;20029;-79
2023/05/05 00:57:58;;;;;;;2.50;1.52;;;8.40;99.90;;;;;;5054804;28;19943;-78
2023/05/05 01:00:24;;;;;;;2.30;1.48;;;8.40;99.90;;;;;;5037056;28;20039;-78
2023/05/05 01:02:51;;;;;;;2.30;1.60;;;8.50;99.90;;;;;;5053384;28;20047;-78
2023/05/05 01:05:18;;;;;;;2.53;1.50;;;8.40;99.90;;;;;;5039820;28;20021;-77
2023/05/05 01:07:58;;;;;;;6.97;1.63;;;8.40;99.90;;;;;;5034871;28;20036;-77
2023/05/05 01:10:45;;;;;;;2.65;1.52;;;8.40;99.90;;;;;;5052410;28;20024;-77
2023/05/05 01:13:29;;;;;;;;;;;8.40;99.90;;;;;;5050997;28;20565;-77
2023/05/05 01:16:22;;;;;;;5.70;2.50;;;8.30;99.90;;;;;;5050079;28;19963;-77
2023/05/05 01:19:12;;;;;;;8.73;4.90;;;8.30;99.90;;;;;;5051604;28;20025;-77
2023/05/05 01:21:51;;;;;;;11.63;7.65;;;8.20;99.90;;;;;;5052004;28;20024;-77
2023/05/05 01:24:44;;;;;;;15.65;10.18;;;8.30;99.90;;;;;;5050063;28;20100;-79
2023/05/05 01:27:29;;;;;;;16.77;11.23;;;8.20;99.90;;;;;;5053750;28;20038;-77
2023/05/05 01:30:16;;;;;;;23.33;14.57;;;8.20;99.90;;;;;;5037834;28;20025;-78
2023/05/05 01:32:49;;;;;;;21.88;13.15;;;8.20;99.90;;;;;;5042951;28;20083;-78
2023/05/05 01:35:24;;;;;;;13.52;10.65;;;8.20;99.90;;;;;;5037808;28;20112;-79
2023/05/05 01:38:05;;;;;;;13.05;7.72;;;8.10;99.90;;;;;;5057744;28;20476;-77
2023/05/05 01:40:37;;;;;;;10.88;7.13;;;8.10;99.90;;;;;;5057232;28;20013;-79
2023/05/05 01:43:06;;;;;;;9.75;6.03;;;8.10;99.90;;;;;;5057021;28;20080;-78
2023/05/05 01:45:36;;;;;;;7.75;4.70;;;8.10;99.90;;;;;;5056226;28;20017;-79
2023/05/05 01:48:04;;;;;;;7.25;3.42;;;8.10;99.90;;;;;;5039848;28;20016;-78
2023/05/05 01:50:31;;;;;;;5.22;3.05;;;8.10;99.90;;;;;;5056347;28;20033;-77
2023/05/05 01:52:57;;;;;;;4.38;2.45;;;8.10;99.90;;;;;;5034161;28;20029;-78
2023/05/05 01:55:25;;;;;;;3.33;2.42;;;8.00;99.90;;;;;;5050850;28;20353;-78
2023/05/05 01:57:52;;;;;;;3.35;1.95;;;8.00;99.90;;;;;;5032191;28;20863;-78
2023/05/05 02:00:21;;;;;;;4.45;2.03;;;8.10;99.90;;;;;;5046046;28;20070;-77
2023/05/05 02:02:48;;;;;;;5.75;2.10;;;8.00;99.90;;;;;;5043527;28;20020;-79
2023/05/05 02:05:18;;;;;;;3.80;2.10;;;8.00;99.90;;;;;;5032602;28;20033;-77
2023/05/05 02:07:45;;;;;;;3.53;1.77;;;8.00;99.90;;;;;;5048603;28;20032;-79
2023/05/05 02:10:12;;;;;;;4.85;1.85;;;8.00;99.90;;;;;;5032640;28;20051;-79
2023/05/05 02:12:39;;;;;;;3.67;2.05;;;8.00;99.90;;;;;;5032195;28;20047;-77
2023/05/05 02:15:06;;;;;;;3.67;1.83;;;8.00;99.90;;;;;;5031981;28;20074;-76
2023/05/05 02:17:32;;;;;;;4.00;1.80;;;8.00;99.90;;;;;;5032749;28;20021;-77
2023/05/05 02:20:00;;;;;;;6.50;2.47;;;8.00;99.90;;;;;;5037220;28;20025;-77
2023/05/05 02:22:26;;;;;;;1.95;1.52;;;8.00;99.90;;;;;;5036361;28;20025;-77
2023/05/05 02:24:53;;;;;;;5.68;2.38;;;8.00;99.90;;;;;;5052197;28;20051;-76
2023/05/05 02:27:21;;;;;;;7.80;2.30;;;8.00;99.90;;;;;;5036282;28;20025;-79
2023/05/05 02:29:56;;;;;;;4.95;1.85;;;8.00;99.90;;;;;;5033928;28;20025;-78
2023/05/05 02:32:34;;;;;;;4.47;2.15;;;8.00;99.90;;;;;;5034502;28;20029;-78
2023/05/05 02:35:06;;;;;;;5.90;2.25;;;8.00;99.90;;;;;;5032398;28;20423;-78
2023/05/05 02:37:32;;;;;;;4.25;2.13;;;8.00;99.90;;;;;;5033407;28;20028;-77
2023/05/05 02:40:01;;;;;;;3.00;2.20;;;7.90;99.90;;;;;;5031466;28;20048;-77
2023/05/05 02:42:30;;;;;;;5.88;2.08;;;7.90;99.90;;;;;;5040373;22;20132;-48
2023/05/05 02:45:00;;;;;;;3.83;1.65;;;7.90;99.90;;;;;;5046368;28;20119;-48
2023/05/05 02:47:36;;;;;;;2.53;1.75;;;7.90;99.90;;;;;;5046774;28;20037;-49
2023/05/05 02:50:04;;;;;;;4.32;1.95;;;7.80;99.90;;;;;;5046852;28;20056;-48
2023/05/05 02:52:30;;;;;;;3.50;2.33;;;7.90;99.90;;;;;;5047385;28;20033;-50
2023/05/05 02:54:56;;;;;;;4.05;1.67;;;7.90;99.90;;;;;;5051872;28;20040;-48
2023/05/05 02:57:34;;;;;;;4.18;2.35;;;7.80;99.90;;;;;;5047363;28;20029;-50
2023/05/05 03:00:04;;;;;;;6.78;2.63;;;7.80;99.90;;;;;;5045959;28;20017;-50
2023/05/05 03:02:46;;;;;;;6.22;2.40;;;7.80;99.90;;;;;;5046573;28;20025;-50
2023/05/05 03:05:21;;;;;;;8.13;2.70;;;7.80;99.90;;;;;;5046401;28;20021;-49
2023/05/05 03:08:01;;;;;;;4.28;2.60;;;7.70;99.90;;;;;;5046413;28;20380;-49
2023/05/05 03:10:32;;;;;;;5.13;2.90;;;7.70;99.90;;;;;;5051709;28;20036;-48
2023/05/05 03:13:00;;;;;;;5.43;2.65;;;7.70;99.90;;;;;;5046290;28;20115;-51
2023/05/05 03:15:36;;;;;;;4.13;2.40;;;7.70;99.90;;;;;;5046456;28;20068;-48
2023/05/05 03:18:02;;;;;;;;;;;7.60;99.90;;;;;;5051382;28;20044;-50
2023/05/05 03:20:28;;;;;;;4.18;3.00;;;7.60;99.90;;;;;;5036361;28;20183;-49
2023/05/05 03:22:54;;;;;;;5.43;2.95;;;7.70;99.90;;;;;;5046874;28;20508;-49
2023/05/05 03:25:21;;;;;;;3.05;2.70;;;7.60;99.90;;;;;;5053828;28;20119;-50
2023/05/05 03:27:46;;;;;;;4.28;3.17;;;7.60;99.90;;;;;;5034265;28;20469;-49
2023/05/05 03:30:12;;;;;;;5.10;3.80;;;7.60;99.90;;;;;;5047128;28;20036;-48
2023/05/05 03:32:38;;;;;;;7.40;3.78;;;7.60;99.90;;;;;;5050136;28;20021;-48
2023/05/05 03:35:04;;;;;;;10.55;4.15;;;7.60;99.90;;;;;;5050989;28;20044;-49
2023/05/05 03:37:30;;;;;;;9.18;4.07;;;7.50;99.90;;;;;;5050345;28;20029;-49
2023/05/05 03:39:56;;;;;;;8.02;4.00;;;7.50;99.90;;;;;;5040572;28;20552;-50
2023/05/05 03:42:22;;;;;;;9.73;5.13;;;7.50;99.90;;;;;;5050518;28;20033;-50
2023/05/05 03:44:47;;;;;;;3.65;3.05;;;7.50;99.90;;;;;;5050295;28;20033;-50
2023/05/05 03:47:13;;;;;;;7.97;4.15;;;7.40;99.90;;;;;;5040352;28;20040;-48
2023/05/05 03:49:38;;;;;;;7.80;4.07;;;7.40;99.90;;;;;;5050192;28;20106;-49
2023/05/05 03:52:04;;;;;;;6.97;4.45;;;7.40;99.90;;;;;;5054924;28;20491;-50
2023/05/05 03:54:30;;;;;;;6.35;4.50;;;7.40;99.90;;;;;;5055076;28;20438;-49
2023/05/05 03:56:57;;;;;;;5.35;4.53;;;7.40;99.90;;;;;;5049219;28;20111;-50
2023/05/05 03:59:22;;;;;;;8.23;4.05;;;7.40;99.90;;;;;;5039730;28;20021;-49
2023/05/05 04:01:48;;;;;;;6.57;4.00;;;7.40;99.90;;;;;;5048304;28;20084;-51
2023/05/05 04:04:14;;;;;;;7.00;4.10;;;7.40;99.90;;;;;;5049892;28;20446;-54
2023/05/05 04:06:40;;;;;;;7.30;4.72;;;7.40;99.90;;;;;;5048633;28;20040;-48
2023/05/05 04:09:06;;;;;;;10.68;5.40;;;7.40;99.90;;;;;;5049150;28;20037;-51
2023/05/05 04:11:31;;;;;;;9.93;5.30;;;7.30;99.90;;;;;;5038987;28;20490;-50
2023/05/05 04:13:57;;;;;;;8.55;5.15;;;7.30;99.90;;;;;;5047991;28;20041;-50
2023/05/05 04:16:22;;;;;;;10.70;5.35;;;7.30;99.90;;;;;;5049361;28;20029;-50
2023/05/05 04:18:48;;;;;;;9.63;5.13;;;7.40;99.90;;;;;;5049211;28;20024;-47
2023/05/05 04:21:13;;;;;;;12.68;6.05;;;7.40;99.90;;;;;;5048907;28;20156;-50
2023/05/05 04:23:39;;;;;;;7.78;4.90;;;7.40;99.90;;;;;;5037918;28;20139;-50
2023/05/05 04:26:05;;;;;;;11.85;5.13;;;7.40;99.90;;;;;;5049504;28;20096;-49
2023/05/05 04:28:31;;;;;;;10.40;6.05;;;7.30;99.90;;;;;;5048162;28;20025;-52
2023/05/05 04:30:58;;;;;;;9.70;6.40;;;7.40;99.90;;;;;;5048397;28;20040;-52
2023/05/05 04:33:23;;;;;;;11.95;6.13;;;7.40;99.90;;;;;;5048972;28;20025;-49
2023/05/05 04:35:49;;;;;;;7.43;4.82;;;7.40;99.90;;;;;;5053438;28;20530;-49
2023/05/05 04:38:14;;;;;;;11.18;5.80;;;7.40;99.90;;;;;;5038354;28;20264;-48
2023/05/05 04:40:40;;;;;;;9.98;5.97;;;7.40;99.90;;;;;;5048698;28;20025;-50
2023/05/05 04:43:06;;;;;;;7.57;5.35;;;7.40;99.90;;;;;;5047370;28;20119;-50
2023/05/05 04:45:32;;;;;;;10.80;6.05;;;7.50;99.90;;;;;;5053706;28;20025;-49
2023/05/05 04:47:57;;;;;;;10.05;5.43;;;7.50;99.90;;;;;;5048324;28;20048;-49
2023/05/05 04:50:23;;;;;;;8.75;5.43;;;7.50;99.90;;;;;;5048373;28;20045;-48
2023/05/05 04:52:49;;;;;;;13.68;6.63;;;7.50;99.90;;;;;;5048385;28;20105;-51
2023/05/05 04:55:14;;;;;;;12.50;5.65;;;7.60;99.90;;;;;;5038972;28;20095;-50
2023/05/05 04:57:40;;;;;;;10.35;5.75;;;7.50;99.90;;;;;;5049014;28;20032;-51
2023/05/05 05:00:06;;;;;;;10.05;5.32;;;7.60;99.90;;;;;;5047342;28;20393;-50
2023/05/05 05:02:32;;;;;;;9.80;5.68;;;7.60;99.90;;;;;;5048519;28;20115;-50
2023/05/05 05:04:58;;;;;;;15.32;6.38;;;7.70;99.90;;;;;;5038739;28;20506;-51
2023/05/05 05:07:23;;;;;;;8.15;5.25;;;7.70;99.90;;;;;;5036937;28;20025;-53
2023/05/05 05:09:49;;;;;;;10.95;5.82;;;7.80;99.90;;;;;;5048133;28;20747;-50
2023/05/05 05:12:14;;;;;;;9.15;5.90;;;7.80;99.90;;;;;;5048457;28;20033;-50
2023/05/05 05:14:40;;;;;;;12.10;6.70;;;7.90;99.90;;;;;;5047226;28;20041;-48
2023/05/05 05:17:05;;;;;;;11.10;5.28;;;7.90;99.90;;;;;;5035470;28;20043;-47
2023/05/05 05:19:31;;;;;;;10.77;5.30;;;8.00;99.90;;;;;;5047857;28;20017;-50
2023/05/05 05:21:58;;;;;;;10.32;5.68;;;8.00;99.90;;;;;;5051680;28;20021;-51
2023/05/05 05:24:26;;;;;;;8.90;5.85;;;8.10;99.90;;;;;;5048176;28;20033;-53
2023/05/05 05:26:52;;;;;;;9.82;5.25;;;8.20;99.90;;;;;;5046543;28;20509;-53
2023/05/05 05:29:19;;;;;;;10.38;5.63;;;8.20;99.90;;;;;;5047895;28;20057;-49
2023/05/05 05:31:44;;;;;;;9.63;5.28;;;8.30;99.90;;;;;;5047556;28;20044;-50
2023/05/05 05:34:10;;;;;;;8.48;5.47;;;8.30;99.90;;;;;;5048079;28;20033;-50
2023/05/05 05:36:35;;;;;;;13.77;5.72;;;8.30;99.90;;;;;;5047977;28;20265;-53
2023/05/05 05:39:01;;;;;;;13.10;6.25;;;8.30;99.90;;;;;;5047817;28;20028;-48
2023/05/05 05:41:26;;;;;;;13.02;5.78;;;8.30;99.90;;;;;;5047315;28;20038;-52
2023/05/05 05:43:52;;;;;;;7.20;5.72;;;8.40;99.90;;;;;;5047811;28;20017;-53
2023/05/05 05:46:18;;;;;;;9.13;5.75;;;8.40;99.90;;;;;;5038326;28;20399;-48
2023/05/05 05:48:43;;;;;;;8.10;5.20;;;8.40;99.90;;;;;;5047138;28;20118;-53
2023/05/05 05:51:09;;;;;;;10.52;5.57;;;8.40;99.90;;;;;;5047532;28;20083;-48
2023/05/05 05:53:35;;;;;;;9.35;5.03;;;8.40;99.90;;;;;;5036679;28;20024;-50
2023/05/05 05:56:00;;;;;;;9.65;5.35;;;8.40;99.90;;;;;;5047443;28;20454;-50
2023/05/05 05:58:26;;;;;;;7.28;4.55;;;8.40;99.90;;;;;;5046943;28;20025;-49
2023/05/05 06:00:51;;;;;;;9.00;5.25;;;8.40;99.90;;;;;;5051829;28;20033;-50
2023/05/05 06:03:17;;;;;;;10.73;4.63;;;8.40;99.90;;;;;;5047117;28;20108;-48
2023/05/05 06:05:44;;;;;;;7.95;4.32;;;8.40;99.90;;;;;;5047255;28;20033;-49
2023/05/05 06:08:10;;;;;;;10.40;4.90;;;8.60;99.90;;;;;;5046775;28;20032;-50
2023/05/05 06:10:36;;;;;;;11.10;5.00;;;8.60;99.90;;;;;;5047559;28;20021;-51
2023/05/05 06:13:01;;;;;;;10.30;5.07;;;8.70;99.90;;;;;;5046285;28;20025;-50
2023/05/05 06:15:27;;;;;;;9.20;5.22;;;8.90;99.90;;;;;;5046388;28;20029;-51
2023/05/05 06:17:52;;;;;;;9.68;5.10;;;9.00;99.90;;;;;;5046022;28;20075;-53
2023/05/05 06:20:18;;;;;;;10.30;4.97;;;9.20;99.90;;;;;;5046560;28;20506;-52
2023/05/05 06:22:43;;;;;;;9.48;5.38;;;9.30;99.90;;;;;;5046356;28;20057;-50
2023/05/05 06:25:09;;;;;;;7.97;4.60;;;9.50;99.90;;;;;;5051329;28;20032;-50
2023/05/05 06:27:35;;;;;;;7.20;4.95;;;9.70;99.90;;;;;;5046646;28;20025;-49
2023/05/05 06:30:00;;;;;;;7.32;4.25;;;9.90;99.90;;;;;;5046892;28;20113;-50
2023/05/05 06:32:26;;;;;;;7.75;4.22;;;10.00;99.90;;;;;;5046339;28;20047;-49
2023/05/05 06:34:52;;;;;;;6.95;4.40;;;10.20;99.90;;;;;;5052298;28;20033;-50
2023/05/05 06:37:17;;;;;;;14.05;4.85;;;10.30;99.90;;;;;;5046555;28;20120;-49
2023/05/05 06:39:43;;;;;;;9.15;4.15;;;10.50;99.90;;;;;;5046372;28;20136;-52
2023/05/05 06:42:09;;;;;;;11.23;4.85;;;10.60;99.90;;;;;;5044394;28;20040;-49
2023/05/05 06:44:35;;;;;;;9.23;3.67;;;10.80;99.90;;;;;;5046648;28;20435;-51
2023/05/05 06:47:02;;;;;;;9.48;4.93;;;10.90;99.90;;;;;;5046610;28;20028;-47
2023/05/05 06:49:27;;;;;;;7.22;3.85;;;11.10;99.90;;;;;;5047086;28;20171;-53
2023/05/05 06:51:53;;;;;;;5.88;4.75;;;11.30;99.90;;;;;;5046920;28;20559;-51
2023/05/05 06:54:18;;;;;;;4.85;3.28;;;11.50;99.90;;;;;;5045011;28;20514;-50
2023/05/05 06:56:44;;;;;;;8.38;3.88;;;11.60;99.90;;;;;;5045293;28;20538;-49
2023/05/05 06:59:10;;;;;;;8.90;3.97;;;11.70;99.90;;;;;;5046911;28;20024;-54
2023/05/05 07:01:36;;;;;;;9.20;4.20;;;11.80;99.90;;;;;;5043777;28;20106;-49
2023/05/05 07:04:01;;;;;;;7.68;3.15;;;11.80;99.90;;;;;;5046675;28;20075;-50
2023/05/05 07:06:27;;;;;;;8.55;3.92;;;11.90;99.90;;;;;;5048630;28;20060;-54
2023/05/05 07:08:53;;;;;;;6.10;4.03;;;12.00;99.90;;;;;;5049209;28;20025;-49
2023/05/05 07:11:18;;;;;;;7.82;4.15;;;12.10;99.90;;;;;;5050281;28;20039;-50
2023/05/05 07:13:44;;;;;;;7.88;4.15;;;12.20;99.90;;;;;;5063346;22;20379;-60
2023/05/05 07:16:09;;;;;;;8.15;3.50;;;12.40;99.90;;;;;;5050038;28;20094;-61
2023/05/05 07:18:35;;;;;;;8.52;3.45;;;12.40;99.90;;;;;;5049558;28;20406;-61
2023/05/05 07:21:00;;;;;;;5.88;3.13;;;12.60;99.90;;;;;;5050643;28;20021;-61
2023/05/05 07:23:26;;;;;;;7.57;3.40;;;12.70;99.90;;;;;;5050009;28;20096;-61
2023/05/05 07:25:53;;;;;;;8.95;3.60;;;12.80;99.90;;;;;;5049172;28;20537;-59
2023/05/05 07:28:18;;;;;;;5.40;3.33;;;12.80;99.90;;;;;;5050074;28;20478;-61
2023/05/05 07:30:44;;;;;;;8.07;3.47;;;12.80;99.90;;;;;;5048448;28;20037;-60
2023/05/05 07:33:10;;;;;;;6.03;3.28;;;12.80;99.90;;;;;;5047825;28;20029;-63
2023/05/05 07:35:35;;;;;;;4.82;3.72;;;12.80;99.90;;;;;;5032296;28;20495;-61
2023/05/05 07:38:01;;;;;;;8.55;4.22;;;12.80;99.90;;;;;;5049652;28;20096;-61
2023/05/05 07:40:27;;;;;;;7.05;3.40;;;12.80;99.90;;;;;;5049084;28;20037;-61
2023/05/05 07:42:53;;;;;;;10.80;3.85;;;12.70;99.90;;;;;;5049363;28;20021;-62
2023/05/05 07:45:18;;;;;;;5.60;3.72;;;12.80;99.90;;;;;;5031743;28;20329;-63
2023/05/05 07:47:44;;;;;;;7.82;4.20;;;12.70;99.90;;;;;;5049085;28;20036;-62
2023/05/05 07:50:09;;;;;;;5.75;3.60;;;12.70;99.90;;;;;;5048642;28;20029;-61
2023/05/05 07:52:35;;;;;;;6.15;3.30;;;12.70;99.90;;;;;;5031828;28;20472;-62
2023/05/05 07:55:01;;;;;;;8.77;4.00;;;12.70;99.90;;;;;;5048205;28;20029;-61
2023/05/05 07:57:27;;;;;;;6.63;3.42;;;12.70;99.90;;;;;;5050112;28;20025;-62
2023/05/05 07:59:52;;;;;;;7.30;4.05;;;12.80;99.90;;;;;;5032907;28;20025;-61
2023/05/05 08:02:18;;;;;;;8.38;4.63;;;12.80;99.90;;;;;;5047348;28;20298;-61
2023/05/05 08:04:43;;;;;;;8.77;4.15;;;12.90;99.90;;;;;;5045440;28;20505;-62
2023/05/05 08:07:09;;;;;;;7.10;3.38;;;13.00;99.90;;;;;;5048947;28;20048;-64
2023/05/05 08:09:36;;;;;;;10.48;3.95;;;13.10;99.90;;;;;;5048540;28;20444;-62
2023/05/05 08:12:02;;;;;;;5.70;3.65;;;13.00;99.90;;;;;;5047515;28;20059;-62
2023/05/05 08:14:29;;;;;;;9.38;3.88;;;13.00;99.90;;;;;;5049255;28;20044;-62
2023/05/05 08:16:54;;;;;;;6.70;3.58;;;13.00;99.90;;;;;;5045007;28;20021;-62
2023/05/05 08:19:20;;;;;;;7.90;3.95;;;13.00;99.90;;;;;;5049300;28;20406;-61
2023/05/05 08:21:45;;;;;;;5.70;3.17;;;12.90;99.90;;;;;;5048916;28;20483;-63
2023/05/05 08:24:11;;;;;;;4.82;3.33;;;12.80;99.90;;;;;;5048535;28;20035;-60
2023/05/05 08:26:37;;;;;;;7.55;3.63;;;12.80;99.90;;;;;;5047810;28;20036;-61
2023/05/05 08:29:02;;;;;;;4.05;2.72;;;12.90;99.90;;;;;;5048741;28;20033;-61
2023/05/05 08:31:32;;;;;;;6.07;3.67;;;13.00;99.90;;;;;;5043761;28;20095;-61
2023/05/05 08:34:00;;;;;;;5.28;3.58;;;13.30;99.90;;;;;;5048877;28;20721;-61
2023/05/05 08:36:26;;;;;;;7.43;3.30;;;13.60;99.90;;;;;;5048020;28;20025;-61
2023/05/05 08:38:51;;;;;;;7.63;3.40;;;14.00;99.90;;;;;;5045998;28;20025;-62
2023/05/05 08:41:18;;;;;;;6.28;3.45;;;14.30;99.90;;;;;;5048377;28;20383;-61
2023/05/05 08:43:46;;;;;;;10.60;3.85;;;14.60;99.90;;;;;;5044438;28;20021;-61
2023/05/05 08:46:12;;;;;;;4.45;3.08;;;14.80;99.90;;;;;;5048777;28;20021;-61
2023/05/05 08:48:40;;;;;;;4.75;3.67;;;14.70;99.90;;;;;;5048316;28;20568;-62
2023/05/05 08:51:09;;;;;;;4.28;3.10;;;14.60;99.90;;;;;;5048319;28;20033;-61
2023/05/05 08:53:47;;;;;;;5.40;3.22;;;14.60;99.90;;;;;;5047426;28;20029;-62
2023/05/05 08:56:14;;;;;;;5.57;3.30;;;14.80;99.90;;;;;;5047466;28;20033;-61
2023/05/05 08:58:42;;;;;;;5.75;3.08;;;14.80;99.90;;;;;;5047334;28;20067;-61
2023/05/05 09:01:08;;;;;;;6.25;3.63;;;14.90;99.90;;;;;;5046076;28;20427;-62
2023/05/05 09:03:36;;;;;;;10.85;3.85;;;15.00;99.90;;;;;;5047863;28;20060;-63
2023/05/05 09:06:02;;;;;;;5.90;2.88;;;15.10;99.90;;;;;;5031519;28;20037;-63
2023/05/05 09:08:28;;;;;;;8.65;3.45;;;15.20;99.90;;;;;;5048312;28;20021;-61
2023/05/05 09:10:54;;;;;;;5.15;3.22;;;15.00;99.90;;;;;;5044677;28;20025;-63
2023/05/05 09:13:20;;;;;;;6.05;3.67;;;15.10;99.90;;;;;;5047137;28;20043;-64
2023/05/05 09:15:45;;;;;;;9.23;4.40;;;15.20;99.90;;;;;;5046928;28;20029;-63
2023/05/05 09:18:11;;;;;;;8.10;3.88;;;15.10;99.90;;;;;;5044121;28;20029;-61
2023/05/05 09:20:39;;;;;;;4.70;3.28;;;15.00;99.90;;;;;;5046822;28;20053;-61
2023/05/05 09:23:18;;;;;;;4.18;3.30;;;14.90;99.90;;;;;;5047467;28;20017;-64
2023/05/05 09:25:47;;;;;;;6.57;3.55;;;14.80;99.90;;;;;;5048342;28;20398;-62
2023/05/05 09:28:15;;;;;;;6.40;3.08;;;14.70;99.90;;;;;;5029014;28;20044;-64
2023/05/05 09:30:42;;;;;;;7.57;4.00;;;14.60;99.90;;;;;;5044719;28;20038;-60
2023/05/05 09:33:08;;;;;;;9.05;4.05;;;14.50;99.90;;;;;;5043924;28;20033;-61
2023/05/05 09:35:52;;;;;;;4.90;3.13;;;14.40;99.90;;;;;;5045832;28;20037;-63
2023/05/05 09:38:19;;;;;;;7.20;3.47;;;14.40;99.90;;;;;;5047413;28;20028;-63
2023/05/05 09:40:54;;;;;;;5.25;3.08;;;14.40;99.90;;;;;;5047864;28;20016;-62
2023/05/05 09:43:21;;;;;;;6.70;3.13;;;14.50;99.90;;;;;;5047771;28;20017;-60
2023/05/05 09:45:50;;;;;;;7.63;3.90;;;14.80;99.90;;;;;;5046914;28;20040;-63
2023/05/05 09:48:30;;;;;;;6.63;3.28;;;15.00;99.90;;;;;;5028135;28;20399;-63
2023/05/05 09:50:57;;;;;;;6.15;3.38;;;15.10;99.90;;;;;;5047751;28;20056;-63
2023/05/05 09:53:24;;;;;;;5.30;3.40;;;15.10;99.90;;;;;;5046493;28;20037;-61
2023/05/05 09:55:54;;;;;;;7.47;3.53;;;15.00;99.90;;;;;;5047369;28;20027;-64
2023/05/05 09:58:22;;;;;;;9.18;3.20;;;14.90;99.90;;;;;;5045763;28;20383;-61
2023/05/05 10:00:49;;;;;;;5.88;3.80;;;14.80;99.90;;;;;;5043925;28;20373;-64
2023/05/05 10:03:15;;;;;;;9.70;3.75;;;14.80;99.90;;;;;;5046657;28;20021;-63
2023/05/05 10:05:54;;;;;;;5.00;3.95;;;14.70;99.90;;;;;;5047323;28;20029;-64
2023/05/05 10:08:22;;;;;;;5.50;3.35;;;14.60;99.90;;;;;;5045710;28;20056;-63
2023/05/05 10:11:00;;;;;;;8.60;3.08;;;14.50;99.90;;;;;;5047227;28;20032;-61
2023/05/05 10:13:26;;;;;;;7.90;3.33;;;14.60;99.90;;;;;;5046575;28;20577;-62
2023/05/05 10:15:55;;;;;;;8.52;3.20;;;14.50;99.90;;;;;;5047327;28;20040;-63
2023/05/05 10:18:27;;;;;;;4.22;3.40;;;14.50;99.90;;;;;;5046410;28;20032;-63
2023/05/05 10:21:01;;;;;;;5.95;3.63;;;14.50;99.90;;;;;;5028977;28;20017;-63
2023/05/05 10:23:48;;;;;;;7.13;3.53;;;14.60;99.90;;;;;;5046460;28;20083;-62
2023/05/05 10:26:15;;;;;;;5.45;3.47;;;14.60;99.90;;;;;;5046338;28;20024;-63
2023/05/05 10:28:54;;;;;;;4.95;2.67;;;14.70;99.90;;;;;;5028265;28;20032;-63
2023/05/05 10:31:28;;;;;;;5.30;3.40;;;14.70;99.90;;;;;;5044457;28;20060;-62
2023/05/05 10:34:01;;;;;;;3.97;3.10;;;14.70;99.90;;;;;;5046452;28;20113;-62
2023/05/05 10:36:28;;;;;;;4.63;3.10;;;14.80;99.90;;;;;;5046488;28;20060;-61
2023/05/05 10:38:58;;;;;;;7.93;3.15;;;14.90;99.90;;;;;;5028858;28;20025;-66
2023/05/05 10:41:27;;;;;;;7.53;3.70;;;14.90;99.90;;;;;;5051040;28;20490;-63
2023/05/05 10:43:58;;;;;;;4.30;3.17;;;14.90;99.90;;;;;;5052621;28;20056;-62
2023/05/05 10:46:27;;;;;;;8.02;3.50;;;15.00;99.90;;;;;;5052331;28;20561;-63
2023/05/05 10:49:13;;;;;;;5.93;3.03;;;15.10;99.90;;;;;;5052799;28;20033;-64
2023/05/05 10:51:48;;;;;;;12.27;4.40;;;15.20;99.90;;;;;;5053412;28;20109;-64
2023/05/05 10:54:35;;;;;;;7.07;3.75;;;15.20;99.90;;;;;;5052129;28;20021;-63
2023/05/05 10:57:03;;;;;;;6.35;3.28;;;15.30;99.90;;;;;;5053061;28;20074;-63
2023/05/05 10:59:35;;;;;;;4.40;2.95;;;15.30;99.90;;;;;;5052413;28;20479;-64
2023/05/05 11:02:20;;;;;;;7.22;3.15;;;15.30;99.90;;;;;;5050123;28;20044;-62
2023/05/05 11:05:05;;;;;;;6.18;3.00;;;15.50;99.90;;;;;;5035754;28;20368;-62
2023/05/05 11:07:31;;;;;;;8.13;3.28;;;15.60;99.90;;;;;;5052449;28;20028;-65
2023/05/05 11:10:01;;;;;;;3.67;2.70;;;15.80;99.90;;;;;;5049159;28;20459;-63
2023/05/05 11:12:28;;;;;;;4.53;3.17;;;16.00;99.90;;;;;;5034445;28;20394;-64
2023/05/05 11:15:27;;;;;;;4.55;3.00;;;16.20;99.90;;;;;;5052386;28;20068;-61
2023/05/05 11:17:55;;;;;;;5.75;3.05;;;16.20;99.90;;;;;;5052581;28;20533;-62
2023/05/05 11:20:35;;;;;;;7.18;3.50;;;16.20;99.90;;;;;;5051689;28;20476;-64
2023/05/05 11:23:01;;;;;;;3.90;3.13;;;16.20;99.60;;;;;;5052438;28;20025;-64
2023/05/05 11:25:36;;;;;;;3.40;2.92;;;16.10;99.90;;;;;;5036904;28;20398;-64
2023/05/05 11:28:09;;;;;;;5.72;2.75;;;16.20;99.90;;;;;;5050737;28;20116;-63
2023/05/05 11:30:55;;;;;;;5.10;3.20;;;16.30;99.90;;;;;;5050932;28;20503;-65
2023/05/05 11:33:29;;;;;;;4.70;3.03;;;16.30;99.90;;;;;;5052746;28;20081;-62
2023/05/05 11:36:00;;;;;;;6.25;2.67;;;16.50;99.90;;;;;;5052431;28;20032;-63
2023/05/05 11:38:54;;;;;;;6.88;3.80;;;16.60;99.90;;;;;;5052239;28;20028;-61
2023/05/05 11:41:50;;;;;;;3.88;2.60;;;16.50;99.90;;;;;;5051381;28;20029;-64
2023/05/05 11:44:19;;;;;;;5.15;2.70;;;16.50;99.90;;;;;;5052720;28;20063;-62
2023/05/05 11:46:51;;;;;;;4.55;2.83;;;16.50;99.90;;;;;;5033665;28;20068;-62
2023/05/05 11:49:26;;;;;;;5.13;3.40;;;16.60;99.90;;;;;;5052961;28;20060;-64
2023/05/05 11:51:58;;;;;;;5.55;2.85;;;16.50;99.90;;;;;;5029243;28;20025;-62
2023/05/05 11:54:25;;;;;;;4.03;2.90;;;16.50;99.90;;;;;;5048936;28;20039;-64
2023/05/05 11:56:55;;;;;;;4.03;2.53;;;16.50;99.50;;;;;;5049110;28;20036;-62
2023/05/05 11:59:21;;;;;;;9.27;3.30;;;16.50;99.50;;;;;;5048798;28;20032;-61
2023/05/05 12:01:47;;;;;;;10.45;3.13;;;16.50;99.60;;;;;;5045532;28;20024;-63
2023/05/05 12:04:14;;;;;;;3.78;2.65;;;16.50;99.70;;;;;;5044871;28;20037;-62
2023/05/05 12:06:40;;;;;;;3.00;2.60;;;16.50;99.50;;;;;;5046923;28;20029;-63
2023/05/05 12:09:16;;;;;;;3.03;2.50;;;16.50;99.50;;;;;;5048642;28;20033;-61
2023/05/05 12:11:47;;;;;;;;;;;16.50;99.90;;;;;;5049322;28;20055;-61
2023/05/05 12:14:13;;;;;;;5.38;2.70;;;16.60;99.90;;;;;;5043444;28;19996;-61
2023/05/05 12:16:39;;;;;;;4.10;2.83;;;16.60;99.90;;;;;;5045817;28;20037;-59
2023/05/05 12:19:06;;;;;;;4.43;2.55;;;16.70;99.90;;;;;;5048719;28;20070;-64
2023/05/05 12:21:32;;;;;;;4.63;2.65;;;16.60;99.90;;;;;;5048206;28;20025;-61
2023/05/05 12:23:58;;;;;;;6.97;2.75;;;16.50;99.90;;;;;;5048497;28;20029;-62
2023/05/05 12:26:28;;;;;;;9.98;3.05;;;16.40;99.90;;;;;;5046901;28;20438;-60
2023/05/05 12:28:58;;;;;;;9.82;3.10;;;16.40;99.90;;;;;;5048474;28;20109;-61
2023/05/05 12:31:38;;;;;;;3.13;2.53;;;16.30;99.90;;;;;;5046303;28;20434;-64
2023/05/05 12:34:05;;;;;;;5.55;2.90;;;16.20;99.80;;;;;;5048483;28;20396;-61
2023/05/05 12:36:32;;;;;;;2.60;2.40;;;16.10;99.90;;;;;;5043720;28;20024;-62
2023/05/05 12:39:00;;;;;;;7.97;3.15;;;16.10;99.90;;;;;;5048379;28;20078;-62
2023/05/05 12:41:27;;;;;;;4.65;2.78;;;16.00;99.90;;;;;;5042387;28;20104;-61
2023/05/05 12:43:57;;;;;;;4.40;2.72;;;15.90;99.90;;;;;;5046831;28;20427;-61
2023/05/05 12:46:24;;;;;;;3.50;2.70;;;16.00;99.90;;;;;;5048623;28;20029;-61
2023/05/05 12:49:04;;;;;;;13.77;3.58;;;16.00;99.90;;;;;;5048403;28;20025;-61
2023/05/05 12:51:33;;;;;;;13.70;3.35;;;16.00;99.90;;;;;;5048239;28;20025;-63
2023/05/05 12:54:05;;;;;;;2.78;2.13;;;16.00;99.90;;;;;;5048093;28;20029;-60
2023/05/05 12:56:41;;;;;;;4.15;2.35;;;15.90;99.90;;;;;;5047994;28;20115;-62
2023/05/05 12:59:21;;;;;;;;;;;15.80;99.90;;;;;;5048927;28;20029;-61